sensor_id;sensor_type;location;lat;lon;timestamp;temperature;humidity
67555;HTU21D;54385;53.516;49.456;2023-07-31T00:02:05;27.65;44.83
67555;HTU21D;54385;53.516;49.456;2023-07-31T00:04:31;27.66;44.83
67555;HTU21D;54385;53.516;49.456;2023-07-31T00:06:57;27.64;44.84
67555;HTU21D;54385;53.516;49.456;2023-07-31T00:09:24;27.63;44.83
67555;HTU21D;54385;53.516;49.456;2023-07-31T00:11:50;27.64;44.87
67555;HTU21D;54385;53.516;49.456;2023-07-31T00:14:16;27.61;44.87
67555;HTU21D;54385;53.516;49.456;2023-07-31T00:16:43;27.60;44.89
67555;HTU21D;54385;53.516;49.456;2023-07-31T00:19:09;27.60;44.89
67555;HTU21D;54385;53.516;49.456;2023-07-31T00:21:35;27.57;44.91
67555;HTU21D;54385;53.516;49.456;2023-07-31T00:24:02;27.57;44.90
67555;HTU21D;54385;53.516;49.456;2023-07-31T00:26:28;27.55;44.92
67555;HTU21D;54385;53.516;49.456;2023-07-31T00:28:55;27.55;44.94
67555;HTU21D;54385;53.516;49.456;2023-07-31T00:31:21;27.55;44.92
67555;HTU21D;54385;53.516;49.456;2023-07-31T00:33:47;27.53;44.93
67555;HTU21D;54385;53.516;49.456;2023-07-31T00:36:14;27.53;44.93
67555;HTU21D;54385;53.516;49.456;2023-07-31T00:38:40;27.53;44.94
67555;HTU21D;54385;53.516;49.456;2023-07-31T00:41:07;27.51;44.94
67555;HTU21D;54385;53.516;49.456;2023-07-31T00:43:33;27.50;44.96
67555;HTU21D;54385;53.516;49.456;2023-07-31T00:46:00;27.50;44.96
67555;HTU21D;54385;53.516;49.456;2023-07-31T00:48:26;27.49;44.96
67555;HTU21D;54385;53.516;49.456;2023-07-31T00:50:53;27.49;44.96
67555;HTU21D;54385;53.516;49.456;2023-07-31T00:53:19;27.49;44.96
67555;HTU21D;54385;53.516;49.456;2023-07-31T00:55:45;27.49;44.98
67555;HTU21D;54385;53.516;49.456;2023-07-31T00:58:12;27.44;44.96
67555;HTU21D;54385;53.516;49.456;2023-07-31T01:00:38;27.45;44.96
67555;HTU21D;54385;53.516;49.456;2023-07-31T01:03:05;27.47;44.93
67555;HTU21D;54385;53.516;49.456;2023-07-31T01:11:25;27.50;44.93
67555;HTU21D;54385;53.516;49.456;2023-07-31T01:13:54;27.50;44.85
67555;HTU21D;54385;53.516;49.456;2023-07-31T01:16:21;27.51;44.81
67555;HTU21D;54385;53.516;49.456;2023-07-31T01:18:47;27.51;44.79
67555;HTU21D;54385;53.516;49.456;2023-07-31T01:21:39;27.52;44.74
67555;HTU21D;54385;53.516;49.456;2023-07-31T01:24:21;27.52;44.76
67555;HTU21D;54385;53.516;49.456;2023-07-31T01:27:10;27.54;44.74
67555;HTU21D;54385;53.516;49.456;2023-07-31T01:29:46;27.54;44.67
67555;HTU21D;54385;53.516;49.456;2023-07-31T01:32:13;27.54;44.64
67555;HTU21D;54385;53.516;49.456;2023-07-31T01:34:41;27.54;44.61
67555;HTU21D;54385;53.516;49.456;2023-07-31T01:37:08;27.55;44.59
67555;HTU21D;54385;53.516;49.456;2023-07-31T01:39:34;27.56;44.54
67555;HTU21D;54385;53.516;49.456;2023-07-31T01:42:00;27.56;44.50
67555;HTU21D;54385;53.516;49.456;2023-07-31T01:44:27;27.57;44.46
67555;HTU21D;54385;53.516;49.456;2023-07-31T01:46:54;27.59;44.41
67555;HTU21D;54385;53.516;49.456;2023-07-31T01:49:20;27.59;44.39
67555;HTU21D;54385;53.516;49.456;2023-07-31T01:51:47;27.61;44.35
67555;HTU21D;54385;53.516;49.456;2023-07-31T01:54:13;27.60;44.31
67555;HTU21D;54385;53.516;49.456;2023-07-31T01:56:39;27.63;44.26
67555;HTU21D;54385;53.516;49.456;2023-07-31T01:59:06;27.61;44.22
67555;HTU21D;54385;53.516;49.456;2023-07-31T02:01:32;27.64;44.18
67555;HTU21D;54385;53.516;49.456;2023-07-31T02:03:58;27.65;44.13
67555;HTU21D;54385;53.516;49.456;2023-07-31T02:06:25;27.65;44.09
67555;HTU21D;54385;53.516;49.456;2023-07-31T02:08:51;27.67;44.03
67555;HTU21D;54385;53.516;49.456;2023-07-31T02:11:18;27.68;43.99
67555;HTU21D;54385;53.516;49.456;2023-07-31T02:13:44;27.67;43.96
67555;HTU21D;54385;53.516;49.456;2023-07-31T02:16:10;27.67;43.94
67555;HTU21D;54385;53.516;49.456;2023-07-31T02:18:37;27.67;43.93
67555;HTU21D;54385;53.516;49.456;2023-07-31T02:21:03;27.67;43.90
67555;HTU21D;54385;53.516;49.456;2023-07-31T02:23:30;27.66;43.88
67555;HTU21D;54385;53.516;49.456;2023-07-31T02:25:56;27.66;43.83
67555;HTU21D;54385;53.516;49.456;2023-07-31T02:28:22;27.68;43.80
67555;HTU21D;54385;53.516;49.456;2023-07-31T02:30:50;27.70;43.71
67555;HTU21D;54385;53.516;49.456;2023-07-31T02:33:18;27.73;43.63
67555;HTU21D;54385;53.516;49.456;2023-07-31T02:35:44;27.74;43.56
67555;HTU21D;54385;53.516;49.456;2023-07-31T02:38:11;27.76;43.51
67555;HTU21D;54385;53.516;49.456;2023-07-31T02:40:37;27.76;43.48
67555;HTU21D;54385;53.516;49.456;2023-07-31T02:43:05;27.75;43.45
67555;HTU21D;54385;53.516;49.456;2023-07-31T02:45:31;27.75;43.41
67555;HTU21D;54385;53.516;49.456;2023-07-31T02:47:58;27.75;43.37
67555;HTU21D;54385;53.516;49.456;2023-07-31T02:50:24;27.79;43.27
67555;HTU21D;54385;53.516;49.456;2023-07-31T02:52:50;27.83;43.16
67555;HTU21D;54385;53.516;49.456;2023-07-31T02:55:17;27.89;43.00
67555;HTU21D;54385;53.516;49.456;2023-07-31T02:57:43;27.96;42.84
67555;HTU21D;54385;53.516;49.456;2023-07-31T03:00:10;28.00;42.73
67555;HTU21D;54385;53.516;49.456;2023-07-31T03:02:36;27.99;42.71
67555;HTU21D;54385;53.516;49.456;2023-07-31T03:05:03;27.99;42.68
67555;HTU21D;54385;53.516;49.456;2023-07-31T03:07:29;27.99;42.65
67555;HTU21D;54385;53.516;49.456;2023-07-31T03:09:56;27.99;42.36
67555;HTU21D;54385;53.516;49.456;2023-07-31T03:12:23;28.00;42.17
67555;HTU21D;54385;53.516;49.456;2023-07-31T03:14:49;28.02;42.11
67555;HTU21D;54385;53.516;49.456;2023-07-31T03:17:15;28.03;41.97
67555;HTU21D;54385;53.516;49.456;2023-07-31T03:19:42;28.02;41.75
67555;HTU21D;54385;53.516;49.456;2023-07-31T03:22:08;28.01;41.67
67555;HTU21D;54385;53.516;49.456;2023-07-31T03:24:35;27.96;41.58
67555;HTU21D;54385;53.516;49.456;2023-07-31T03:27:01;27.94;41.71
67555;HTU21D;54385;53.516;49.456;2023-07-31T03:29:28;27.89;42.05
67555;HTU21D;54385;53.516;49.456;2023-07-31T03:31:54;27.89;42.68
67555;HTU21D;54385;53.516;49.456;2023-07-31T03:34:21;27.88;43.49
67555;HTU21D;54385;53.516;49.456;2023-07-31T03:36:47;27.89;43.84
67555;HTU21D;54385;53.516;49.456;2023-07-31T03:39:14;27.90;43.91
67555;HTU21D;54385;53.516;49.456;2023-07-31T03:41:40;27.88;43.79
67555;HTU21D;54385;53.516;49.456;2023-07-31T03:44:07;27.87;43.71
67555;HTU21D;54385;53.516;49.456;2023-07-31T03:46:33;27.90;43.58
67555;HTU21D;54385;53.516;49.456;2023-07-31T03:49:00;27.89;43.29
67555;HTU21D;54385;53.516;49.456;2023-07-31T03:51:27;27.90;42.97
67555;HTU21D;54385;53.516;49.456;2023-07-31T03:53:53;27.93;42.65
67555;HTU21D;54385;53.516;49.456;2023-07-31T03:56:26;27.89;42.33
67555;HTU21D;54385;53.516;49.456;2023-07-31T03:58:53;27.82;41.72
67555;HTU21D;54385;53.516;49.456;2023-07-31T04:01:19;27.40;42.02
67555;HTU21D;54385;53.516;49.456;2023-07-31T04:03:46;27.16;42.16
67555;HTU21D;54385;53.516;49.456;2023-07-31T04:06:12;26.94;42.30
67555;HTU21D;54385;53.516;49.456;2023-07-31T04:08:39;26.35;43.33
67555;HTU21D;54385;53.516;49.456;2023-07-31T04:11:05;26.28;43.07
67555;HTU21D;54385;53.516;49.456;2023-07-31T04:13:31;25.91;43.81
67555;HTU21D;54385;53.516;49.456;2023-07-31T04:15:58;25.80;44.20
67555;HTU21D;54385;53.516;49.456;2023-07-31T04:18:25;25.72;44.19
67555;HTU21D;54385;53.516;49.456;2023-07-31T04:20:52;25.78;44.01
67555;HTU21D;54385;53.516;49.456;2023-07-31T04:23:18;25.84;43.81
67555;HTU21D;54385;53.516;49.456;2023-07-31T04:25:45;25.84;43.76
67555;HTU21D;54385;53.516;49.456;2023-07-31T04:28:11;25.29;44.64
67555;HTU21D;54385;53.516;49.456;2023-07-31T04:30:38;24.78;45.67
67555;HTU21D;54385;53.516;49.456;2023-07-31T04:33:05;24.85;45.67
67555;HTU21D;54385;53.516;49.456;2023-07-31T04:35:31;24.78;45.77
67555;HTU21D;54385;53.516;49.456;2023-07-31T04:37:57;24.82;45.52
67555;HTU21D;54385;53.516;49.456;2023-07-31T04:40:25;25.12;44.58
67555;HTU21D;54385;53.516;49.456;2023-07-31T04:42:52;25.09;44.42
67555;HTU21D;54385;53.516;49.456;2023-07-31T04:45:18;25.04;44.61
67555;HTU21D;54385;53.516;49.456;2023-07-31T04:47:45;25.10;44.35
67555;HTU21D;54385;53.516;49.456;2023-07-31T04:50:17;25.34;43.68
67555;HTU21D;54385;53.516;49.456;2023-07-31T04:52:44;25.40;43.47
67555;HTU21D;54385;53.516;49.456;2023-07-31T04:55:13;25.60;42.97
67555;HTU21D;54385;53.516;49.456;2023-07-31T04:57:39;25.91;42.13
67555;HTU21D;54385;53.516;49.456;2023-07-31T05:00:06;26.23;41.35
67555;HTU21D;54385;53.516;49.456;2023-07-31T05:02:33;26.37;40.97
67555;HTU21D;54385;53.516;49.456;2023-07-31T05:04:59;26.16;41.42
67555;HTU21D;54385;53.516;49.456;2023-07-31T05:07:26;25.48;42.77
67555;HTU21D;54385;53.516;49.456;2023-07-31T05:09:52;25.20;43.44
67555;HTU21D;54385;53.516;49.456;2023-07-31T05:12:19;25.00;44.00
67555;HTU21D;54385;53.516;49.456;2023-07-31T05:14:45;25.23;43.42
67555;HTU21D;54385;53.516;49.456;2023-07-31T05:17:12;25.35;43.20
67555;HTU21D;54385;53.516;49.456;2023-07-31T05:19:38;25.34;43.26
67555;HTU21D;54385;53.516;49.456;2023-07-31T05:22:06;25.36;43.35
67555;HTU21D;54385;53.516;49.456;2023-07-31T05:24:35;25.43;43.54
67555;HTU21D;54385;53.516;49.456;2023-07-31T05:27:01;25.65;43.18
67555;HTU21D;54385;53.516;49.456;2023-07-31T05:29:28;25.63;43.26
67555;HTU21D;54385;53.516;49.456;2023-07-31T05:31:55;25.10;44.24
67555;HTU21D;54385;53.516;49.456;2023-07-31T05:34:24;24.77;45.03
67555;HTU21D;54385;53.516;49.456;2023-07-31T05:36:51;24.33;46.15
67555;HTU21D;54385;53.516;49.456;2023-07-31T05:39:37;24.28;46.80
67555;HTU21D;54385;53.516;49.456;2023-07-31T05:42:05;24.36;46.25
67555;HTU21D;54385;53.516;49.456;2023-07-31T05:44:31;24.00;47.06
67555;HTU21D;54385;53.516;49.456;2023-07-31T05:46:58;24.02;47.01
67555;HTU21D;54385;53.516;49.456;2023-07-31T05:49:24;24.11;46.86
67555;HTU21D;54385;53.516;49.456;2023-07-31T05:51:51;23.89;47.31
67555;HTU21D;54385;53.516;49.456;2023-07-31T05:54:22;23.25;48.71
67555;HTU21D;54385;53.516;49.456;2023-07-31T05:56:49;23.08;49.19
67555;HTU21D;54385;53.516;49.456;2023-07-31T05:59:16;23.00;49.41
67555;HTU21D;54385;53.516;49.456;2023-07-31T06:01:43;22.80;50.06
67555;HTU21D;54385;53.516;49.456;2023-07-31T06:04:09;22.69;50.05
67555;HTU21D;54385;53.516;49.456;2023-07-31T06:06:36;22.31;50.72
67555;HTU21D;54385;53.516;49.456;2023-07-31T06:09:03;21.95;51.61
67555;HTU21D;54385;53.516;49.456;2023-07-31T06:11:29;21.73;52.32
67555;HTU21D;54385;53.516;49.456;2023-07-31T06:13:56;21.65;52.65
67555;HTU21D;54385;53.516;49.456;2023-07-31T06:16:22;22.07;51.69
67555;HTU21D;54385;53.516;49.456;2023-07-31T06:18:49;22.49;50.58
67555;HTU21D;54385;53.516;49.456;2023-07-31T06:21:16;22.24;51.12
67555;HTU21D;54385;53.516;49.456;2023-07-31T06:23:42;21.76;52.20
67555;HTU21D;54385;53.516;49.456;2023-07-31T06:26:12;21.30;53.36
67555;HTU21D;54385;53.516;49.456;2023-07-31T06:28:39;20.98;54.21
67555;HTU21D;54385;53.516;49.456;2023-07-31T06:31:06;20.64;55.25
67555;HTU21D;54385;53.516;49.456;2023-07-31T06:33:32;20.50;55.75
67555;HTU21D;54385;53.516;49.456;2023-07-31T06:35:59;20.66;55.49
67555;HTU21D;54385;53.516;49.456;2023-07-31T06:38:28;20.76;55.74
67555;HTU21D;54385;53.516;49.456;2023-07-31T06:40:55;20.96;54.85
67555;HTU21D;54385;53.516;49.456;2023-07-31T06:43:22;21.08;54.46
67555;HTU21D;54385;53.516;49.456;2023-07-31T06:45:48;21.49;53.44
67555;HTU21D;54385;53.516;49.456;2023-07-31T06:48:17;21.78;52.78
67555;HTU21D;54385;53.516;49.456;2023-07-31T06:50:44;21.67;52.93
67555;HTU21D;54385;53.516;49.456;2023-07-31T06:53:11;21.66;53.33
67555;HTU21D;54385;53.516;49.456;2023-07-31T06:55:37;21.74;53.08
67555;HTU21D;54385;53.516;49.456;2023-07-31T06:58:04;21.77;52.95
67555;HTU21D;54385;53.516;49.456;2023-07-31T07:00:30;21.93;52.63
67555;HTU21D;54385;53.516;49.456;2023-07-31T07:02:58;21.93;52.78
67555;HTU21D;54385;53.516;49.456;2023-07-31T07:05:25;22.25;51.98
67555;HTU21D;54385;53.516;49.456;2023-07-31T07:07:51;22.27;51.98
67555;HTU21D;54385;53.516;49.456;2023-07-31T07:10:18;22.32;51.77
67555;HTU21D;54385;53.516;49.456;2023-07-31T07:12:46;22.13;52.36
67555;HTU21D;54385;53.516;49.456;2023-07-31T07:15:12;21.82;53.30
67555;HTU21D;54385;53.516;49.456;2023-07-31T07:17:39;22.31;52.13
67555;HTU21D;54385;53.516;49.456;2023-07-31T07:20:06;22.19;52.44
67555;HTU21D;54385;53.516;49.456;2023-07-31T07:22:36;21.89;53.18
67555;HTU21D;54385;53.516;49.456;2023-07-31T07:25:04;21.60;54.16
67555;HTU21D;54385;53.516;49.456;2023-07-31T07:27:31;21.37;54.82
67555;HTU21D;54385;53.516;49.456;2023-07-31T07:30:00;21.16;55.52
67555;HTU21D;54385;53.516;49.456;2023-07-31T07:32:27;21.15;55.71
67555;HTU21D;54385;53.516;49.456;2023-07-31T07:34:55;21.03;56.15
67555;HTU21D;54385;53.516;49.456;2023-07-31T07:37:22;21.11;55.90
67555;HTU21D;54385;53.516;49.456;2023-07-31T07:39:48;21.03;56.26
67555;HTU21D;54385;53.516;49.456;2023-07-31T07:42:18;21.38;55.68
67555;HTU21D;54385;53.516;49.456;2023-07-31T07:44:45;21.73;54.46
67555;HTU21D;54385;53.516;49.456;2023-07-31T07:47:12;21.96;53.88
67555;HTU21D;54385;53.516;49.456;2023-07-31T07:49:38;22.21;53.11
67555;HTU21D;54385;53.516;49.456;2023-07-31T07:52:05;22.38;52.75
67555;HTU21D;54385;53.516;49.456;2023-07-31T07:54:32;22.47;52.40
67555;HTU21D;54385;53.516;49.456;2023-07-31T07:56:59;22.32;52.82
67555;HTU21D;54385;53.516;49.456;2023-07-31T07:59:25;22.35;52.96
67555;HTU21D;54385;53.516;49.456;2023-07-31T08:01:55;22.68;52.33
67555;HTU21D;54385;53.516;49.456;2023-07-31T08:04:21;23.21;51.06
67555;HTU21D;54385;53.516;49.456;2023-07-31T08:06:47;23.47;50.41
67555;HTU21D;54385;53.516;49.456;2023-07-31T08:09:14;24.06;49.09
67555;HTU21D;54385;53.516;49.456;2023-07-31T08:11:40;24.49;48.02
67555;HTU21D;54385;53.516;49.456;2023-07-31T08:14:07;24.63;47.66
67555;HTU21D;54385;53.516;49.456;2023-07-31T08:16:34;24.44;47.99
67555;HTU21D;54385;53.516;49.456;2023-07-31T08:19:00;23.91;49.21
67555;HTU21D;54385;53.516;49.456;2023-07-31T08:21:27;23.62;49.94
67555;HTU21D;54385;53.516;49.456;2023-07-31T08:23:53;23.61;50.00
67555;HTU21D;54385;53.516;49.456;2023-07-31T08:26:20;23.88;49.40
67555;HTU21D;54385;53.516;49.456;2023-07-31T08:28:50;23.96;49.34
67555;HTU21D;54385;53.516;49.456;2023-07-31T08:31:19;23.82;49.63
67555;HTU21D;54385;53.516;49.456;2023-07-31T08:33:45;23.75;49.96
67555;HTU21D;54385;53.516;49.456;2023-07-31T08:36:12;23.27;50.97
67555;HTU21D;54385;53.516;49.456;2023-07-31T08:38:38;23.09;51.39
67555;HTU21D;54385;53.516;49.456;2023-07-31T08:41:06;23.29;50.79
67555;HTU21D;54385;53.516;49.456;2023-07-31T08:43:33;23.02;51.26
67555;HTU21D;54385;53.516;49.456;2023-07-31T08:45:59;22.32;53.17
67555;HTU21D;54385;53.516;49.456;2023-07-31T08:48:31;22.09;54.04
67555;HTU21D;54385;53.516;49.456;2023-07-31T08:51:01;21.95;54.42
67555;HTU21D;54385;53.516;49.456;2023-07-31T08:53:27;21.69;55.20
67555;HTU21D;54385;53.516;49.456;2023-07-31T08:55:54;21.54;55.71
67555;HTU21D;54385;53.516;49.456;2023-07-31T08:58:23;21.51;55.99
67555;HTU21D;54385;53.516;49.456;2023-07-31T09:00:51;21.65;55.66
67555;HTU21D;54385;53.516;49.456;2023-07-31T09:03:19;21.97;54.83
67555;HTU21D;54385;53.516;49.456;2023-07-31T09:05:51;22.09;54.33
67555;HTU21D;54385;53.516;49.456;2023-07-31T09:08:20;22.02;54.60
67555;HTU21D;54385;53.516;49.456;2023-07-31T09:10:47;21.93;54.62
67555;HTU21D;54385;53.516;49.456;2023-07-31T09:13:16;21.82;54.87
67555;HTU21D;54385;53.516;49.456;2023-07-31T09:15:44;21.75;55.05
67555;HTU21D;54385;53.516;49.456;2023-07-31T09:18:11;21.80;54.65
67555;HTU21D;54385;53.516;49.456;2023-07-31T09:20:38;21.98;54.01
67555;HTU21D;54385;53.516;49.456;2023-07-31T09:23:13;22.10;53.88
67555;HTU21D;54385;53.516;49.456;2023-07-31T09:25:43;22.37;53.10
67555;HTU21D;54385;53.516;49.456;2023-07-31T09:28:11;22.34;53.07
67555;HTU21D;54385;53.516;49.456;2023-07-31T09:30:49;22.35;53.18
67555;HTU21D;54385;53.516;49.456;2023-07-31T09:33:17;22.49;52.63
67555;HTU21D;54385;53.516;49.456;2023-07-31T09:35:44;22.55;52.52
67555;HTU21D;54385;53.516;49.456;2023-07-31T09:38:12;22.94;51.85
67555;HTU21D;54385;53.516;49.456;2023-07-31T09:40:41;23.11;51.34
67555;HTU21D;54385;53.516;49.456;2023-07-31T09:43:13;23.59;50.21
67555;HTU21D;54385;53.516;49.456;2023-07-31T09:45:44;23.59;49.50
67555;HTU21D;54385;53.516;49.456;2023-07-31T09:48:12;23.32;50.15
67555;HTU21D;54385;53.516;49.456;2023-07-31T09:50:42;23.37;50.38
67555;HTU21D;54385;53.516;49.456;2023-07-31T09:53:09;23.54;50.01
67555;HTU21D;54385;53.516;49.456;2023-07-31T09:55:37;23.68;49.23
67555;HTU21D;54385;53.516;49.456;2023-07-31T09:58:05;23.43;49.60
67555;HTU21D;54385;53.516;49.456;2023-07-31T10:00:33;23.41;49.70
67555;HTU21D;54385;53.516;49.456;2023-07-31T10:03:01;23.52;49.41
67555;HTU21D;54385;53.516;49.456;2023-07-31T10:05:34;23.34;49.62
67555;HTU21D;54385;53.516;49.456;2023-07-31T10:08:01;23.49;49.18
67555;HTU21D;54385;53.516;49.456;2023-07-31T10:10:28;23.36;49.38
67555;HTU21D;54385;53.516;49.456;2023-07-31T10:12:56;23.36;49.65
67555;HTU21D;54385;53.516;49.456;2023-07-31T10:15:25;23.97;48.41
67555;HTU21D;54385;53.516;49.456;2023-07-31T10:17:54;24.58;46.96
67555;HTU21D;54385;53.516;49.456;2023-07-31T10:20:21;25.05;45.86
67555;HTU21D;54385;53.516;49.456;2023-07-31T10:22:49;25.52;44.69
67555;HTU21D;54385;53.516;49.456;2023-07-31T10:25:18;26.13;43.39
67555;HTU21D;54385;53.516;49.456;2023-07-31T10:27:47;26.58;42.06
67555;HTU21D;54385;53.516;49.456;2023-07-31T10:30:19;26.92;40.83
67555;HTU21D;54385;53.516;49.456;2023-07-31T10:32:47;27.08;40.89
67555;HTU21D;54385;53.516;49.456;2023-07-31T10:35:17;27.21;40.23
67555;HTU21D;54385;53.516;49.456;2023-07-31T10:37:44;27.22;40.29
67555;HTU21D;54385;53.516;49.456;2023-07-31T10:40:16;27.15;40.11
67555;HTU21D;54385;53.516;49.456;2023-07-31T10:42:56;27.09;39.06
67555;HTU21D;54385;53.516;49.456;2023-07-31T10:48:06;26.97;40.17
67555;HTU21D;54385;53.516;49.456;2023-07-31T10:50:37;26.92;39.69
67555;HTU21D;54385;53.516;49.456;2023-07-31T10:53:04;26.91;40.37
67555;HTU21D;54385;53.516;49.456;2023-07-31T10:55:41;26.87;39.52
67555;HTU21D;54385;53.516;49.456;2023-07-31T10:58:13;26.81;40.34
67555;HTU21D;54385;53.516;49.456;2023-07-31T11:00:44;26.78;40.24
67555;HTU21D;54385;53.516;49.456;2023-07-31T11:03:19;26.75;40.01
67555;HTU21D;54385;53.516;49.456;2023-07-31T11:05:53;26.76;40.44
67555;HTU21D;54385;53.516;49.456;2023-07-31T11:08:28;26.81;40.70
67555;HTU21D;54385;53.516;49.456;2023-07-31T11:11:07;26.90;40.78
67555;HTU21D;54385;53.516;49.456;2023-07-31T11:13:46;26.96;42.10
67555;HTU21D;54385;53.516;49.456;2023-07-31T11:16:20;27.05;42.58
67555;HTU21D;54385;53.516;49.456;2023-07-31T11:18:50;27.15;42.55
67555;HTU21D;54385;53.516;49.456;2023-07-31T11:21:19;27.29;42.06
67555;HTU21D;54385;53.516;49.456;2023-07-31T11:23:53;27.45;41.13
67555;HTU21D;54385;53.516;49.456;2023-07-31T11:26:20;27.59;41.07
67555;HTU21D;54385;53.516;49.456;2023-07-31T11:28:47;27.69;40.74
67555;HTU21D;54385;53.516;49.456;2023-07-31T11:31:14;27.74;40.65
67555;HTU21D;54385;53.516;49.456;2023-07-31T11:33:44;27.71;40.62
67555;HTU21D;54385;53.516;49.456;2023-07-31T11:36:18;27.69;40.20
67555;HTU21D;54385;53.516;49.456;2023-07-31T11:38:45;27.60;40.72
67555;HTU21D;54385;53.516;49.456;2023-07-31T11:41:14;27.53;40.66
67555;HTU21D;54385;53.516;49.456;2023-07-31T11:43:42;27.47;40.91
67555;HTU21D;54385;53.516;49.456;2023-07-31T11:46:09;27.43;40.93
67555;HTU21D;54385;53.516;49.456;2023-07-31T11:48:37;27.41;40.89
67555;HTU21D;54385;53.516;49.456;2023-07-31T11:51:05;27.41;40.85
67555;HTU21D;54385;53.516;49.456;2023-07-31T11:56:02;27.44;40.75
67555;HTU21D;54385;53.516;49.456;2023-07-31T11:58:31;27.46;40.65
67555;HTU21D;54385;53.516;49.456;2023-07-31T12:01:00;27.50;40.62
67555;HTU21D;54385;53.516;49.456;2023-07-31T12:03:27;27.54;40.55
67555;HTU21D;54385;53.516;49.456;2023-07-31T12:05:54;27.59;40.42
67555;HTU21D;54385;53.516;49.456;2023-07-31T12:08:23;27.71;40.17
67555;HTU21D;54385;53.516;49.456;2023-07-31T12:10:53;27.81;39.75
67555;HTU21D;54385;53.516;49.456;2023-07-31T12:13:22;27.91;39.69
67555;HTU21D;54385;53.516;49.456;2023-07-31T12:15:53;28.02;39.54
67555;HTU21D;54385;53.516;49.456;2023-07-31T12:18:20;28.12;39.30
67555;HTU21D;54385;53.516;49.456;2023-07-31T12:20:48;28.19;39.15
67555;HTU21D;54385;53.516;49.456;2023-07-31T12:23:17;28.28;38.89
67555;HTU21D;54385;53.516;49.456;2023-07-31T12:25:43;28.40;38.80
67555;HTU21D;54385;53.516;49.456;2023-07-31T12:28:10;28.49;38.59
67555;HTU21D;54385;53.516;49.456;2023-07-31T12:30:40;28.58;38.32
67555;HTU21D;54385;53.516;49.456;2023-07-31T12:33:14;28.70;37.83
67555;HTU21D;54385;53.516;49.456;2023-07-31T12:35:46;28.99;37.26
67555;HTU21D;54385;53.516;49.456;2023-07-31T12:38:13;29.58;36.66
67555;HTU21D;54385;53.516;49.456;2023-07-31T12:40:41;30.51;35.01
67555;HTU21D;54385;53.516;49.456;2023-07-31T12:43:11;31.43;33.55
67555;HTU21D;54385;53.516;49.456;2023-07-31T12:45:37;31.99;32.77
67555;HTU21D;54385;53.516;49.456;2023-07-31T12:48:07;33.09;30.94
67555;HTU21D;54385;53.516;49.456;2023-07-31T12:50:33;34.90;28.22
67555;HTU21D;54385;53.516;49.456;2023-07-31T12:53:02;37.55;24.64
67555;HTU21D;54385;53.516;49.456;2023-07-31T12:55:32;39.05;22.11
67555;HTU21D;54385;53.516;49.456;2023-07-31T12:58:03;41.34;19.47
67555;HTU21D;54385;53.516;49.456;2023-07-31T13:00:30;43.04;17.57
67555;HTU21D;54385;53.516;49.456;2023-07-31T13:02:56;45.44;15.10
67555;HTU21D;54385;53.516;49.456;2023-07-31T13:05:23;45.66;14.78
67555;HTU21D;54385;53.516;49.456;2023-07-31T13:07:49;44.54;15.76
67555;HTU21D;54385;53.516;49.456;2023-07-31T13:10:15;42.81;17.40
67555;HTU21D;54385;53.516;49.456;2023-07-31T13:12:42;41.16;19.02
67555;HTU21D;54385;53.516;49.456;2023-07-31T13:15:08;39.71;20.59
67555;HTU21D;54385;53.516;49.456;2023-07-31T13:17:35;38.60;21.85
67555;HTU21D;54385;53.516;49.456;2023-07-31T13:20:02;37.84;22.85
67555;HTU21D;54385;53.516;49.456;2023-07-31T13:22:29;40.12;20.36
67555;HTU21D;54385;53.516;49.456;2023-07-31T13:24:56;43.36;16.87
67555;HTU21D;54385;53.516;49.456;2023-07-31T13:27:22;45.71;14.48
67555;HTU21D;54385;53.516;49.456;2023-07-31T13:29:54;47.47;12.26
67555;HTU21D;54385;53.516;49.456;2023-07-31T13:32:21;48.67;11.73
67555;HTU21D;54385;53.516;49.456;2023-07-31T13:34:48;49.61;10.98
67555;HTU21D;54385;53.516;49.456;2023-07-31T13:37:15;50.26;10.45
67555;HTU21D;54385;53.516;49.456;2023-07-31T13:39:42;50.82;10.03
67555;HTU21D;54385;53.516;49.456;2023-07-31T13:42:09;51.36;9.63
67555;HTU21D;54385;53.516;49.456;2023-07-31T13:44:42;51.79;8.68
67555;HTU21D;54385;53.516;49.456;2023-07-31T13:47:09;52.08;9.11
67555;HTU21D;54385;53.516;49.456;2023-07-31T13:49:36;52.26;9.01
67555;HTU21D;54385;53.516;49.456;2023-07-31T13:52:03;52.39;8.87
67555;HTU21D;54385;53.516;49.456;2023-07-31T13:54:30;52.44;8.83
67555;HTU21D;54385;53.516;49.456;2023-07-31T13:56:56;51.96;9.17
67555;HTU21D;54385;53.516;49.456;2023-07-31T13:59:23;51.38;9.52
67555;HTU21D;54385;53.516;49.456;2023-07-31T14:01:50;48.94;11.18
67555;HTU21D;54385;53.516;49.456;2023-07-31T14:04:16;46.45;13.30
67555;HTU21D;54385;53.516;49.456;2023-07-31T14:06:44;45.78;13.93
67555;HTU21D;54385;53.516;49.456;2023-07-31T14:09:10;44.18;15.39
67555;HTU21D;54385;53.516;49.456;2023-07-31T14:11:37;42.41;17.12
67555;HTU21D;54385;53.516;49.456;2023-07-31T14:14:03;41.01;18.60
67555;HTU21D;54385;53.516;49.456;2023-07-31T14:16:30;39.97;19.83
67555;HTU21D;54385;53.516;49.456;2023-07-31T14:18:57;39.08;20.85
67555;HTU21D;54385;53.516;49.456;2023-07-31T14:21:25;38.35;21.81
67555;HTU21D;54385;53.516;49.456;2023-07-31T14:23:52;37.70;22.63
67555;HTU21D;54385;53.516;49.456;2023-07-31T14:26:18;37.31;23.17
67555;HTU21D;54385;53.516;49.456;2023-07-31T14:28:45;37.01;23.59
67555;HTU21D;54385;53.516;49.456;2023-07-31T14:31:12;36.83;23.85
67555;HTU21D;54385;53.516;49.456;2023-07-31T14:33:38;36.73;24.04
67555;HTU21D;54385;53.516;49.456;2023-07-31T14:36:05;36.43;24.43
67555;HTU21D;54385;53.516;49.456;2023-07-31T14:38:31;36.17;24.83
67555;HTU21D;54385;53.516;49.456;2023-07-31T14:40:58;36.01;25.07
67555;HTU21D;54385;53.516;49.456;2023-07-31T14:43:25;35.73;25.47
67555;HTU21D;54385;53.516;49.456;2023-07-31T14:45:51;35.47;25.91
67555;HTU21D;54385;53.516;49.456;2023-07-31T14:48:19;35.13;26.45
67555;HTU21D;54385;53.516;49.456;2023-07-31T14:50:45;34.78;26.93
67555;HTU21D;54385;53.516;49.456;2023-07-31T14:53:12;34.41;27.53
67555;HTU21D;54385;53.516;49.456;2023-07-31T14:55:38;34.08;28.10
67555;HTU21D;54385;53.516;49.456;2023-07-31T14:58:04;33.78;28.55
67555;HTU21D;54385;53.516;49.456;2023-07-31T15:00:31;33.51;28.97
67555;HTU21D;54385;53.516;49.456;2023-07-31T15:02:57;33.31;29.36
67555;HTU21D;54385;53.516;49.456;2023-07-31T15:05:24;33.13;29.71
67555;HTU21D;54385;53.516;49.456;2023-07-31T15:07:50;32.89;30.08
67555;HTU21D;54385;53.516;49.456;2023-07-31T15:10:16;32.62;30.52
67555;HTU21D;54385;53.516;49.456;2023-07-31T15:12:43;32.37;31.01
67555;HTU21D;54385;53.516;49.456;2023-07-31T15:15:09;32.14;31.40
67555;HTU21D;54385;53.516;49.456;2023-07-31T15:17:36;31.88;31.83